Manchester, TN (37355)

6:10 PM CDT on September 22, 2014 (GMT -0500)
KTNMANCH4 | Change Station
CLOSE
Current Station
Personal Weather Station
Location: Manchester, TN
Elevation: 1048 ft
Nearby Weather Stations

Elev 1048 ft 35.45 °N, 86.12 °W | Updated 5 seconds ago

Clear
Clear
67.2 °F
Feels Like 67.2 °F
N
0.0
Wind Variable Wind from NNE
Gusts 9.0 mph

Today
High -- | Low -- °F
--% Chance of Precip.
Yesterday
High -- | Low -- °F
Precip. -- in
6:32 AM 6:41 PM
Waning Crescent, 2% visible
Pressure 30.16 in
Visibility 10.0 miles
Clouds Clear
Dew Point 51 °F
Humidity 56%
Rainfall 0.01 in
Snow Depth Not available.
UV 0 out of 12
Pollen 7.50 out of 12
Air Quality Not available.
Flu Activity Not available.
METAR KTHA 222255Z AUTO 01010KT 10SM CLR 20/07 A3016 RMK

More Conditions Fewer Conditions

Pressure 30.16 in
Visibility 10.0 miles
Clouds Clear
Dew Point 51 °F
Humidity 56%
Rainfall 0.01 in
Snow Depth Not available.
UV 0 out of 12
Pollen 7.50 out of 12
Air Quality Not available.
Flu Activity Not available.
METAR KTHA 222255Z AUTO 01010KT 10SM CLR 20/07 A3016 RMK

More Conditions Fewer Conditions

10-Day Weather Forecast

Almanac

Astronomy

Sep. 22, 2014 Rise Set
Actual Time 6:32 AM CDT 6:41 PM CDT
Civil Twilight 6:06 AM CDT 7:06 PM CDT
Nautical Twilight 5:37 AM CDT 7:36 PM CDT
Astronomical Twilight 5:07 AM CDT 8:06 PM CDT
Moon 5:02 AM CDT 5:47 PM CDT
Length of Visible Light 12h 59m
Length of Day
12h 08m
Tomorrow will be 2m 14s shorter.
Waning Crescent, 2% of the Moon is Illuminated
Today
Waning Crescent
Sep 24
New
Oct 1
First Quarter
Oct 8
Full
Oct 15
Last Quarter

Today's Extremes

State Highs State Lows

Community

WunderPhotos

Upload Photos

1,755,548 photos uploaded!

Nearby

Snow Depth

Station Depth Elevation
No new snow has been reported.

Earthquake Activity

City Distance Mag. Time & Date
Sweetwater, Tennessee 95 miles 2.5 2:54 PM CDT
2014-09-20
Minimum magnitude displayed is 2.5.

Coastal Water Temperatures

Place Temperature
No Stations Reporting

Nearby Weather Stations